Time;durP1;ratioP1;P1;durP2;ratioP2;P2;SDS_P1;SDS_P2;PMS_P1;PMS_P2;Temp;Humidity;BMP_temperature;BMP_pressure;BME280_temperature;BME280_humidity;BME280_pressure;Samples;Min_cycle;Max_cycle;Signal;HPM_P1;HPM_P2
2023/04/09 00:01:05;;;;;;;67.10;49.55;;;8.40;99.90;;;;;;4738083;30;20048;-85
2023/04/09 00:03:31;;;;;;;72.60;48.25;;;8.40;99.90;;;;;;4769270;30;20047;-85
2023/04/09 00:05:57;;;;;;;66.05;49.35;;;8.40;99.90;;;;;;4753390;30;20100;-85
2023/04/09 00:08:22;;;;;;;65.65;50.20;;;8.30;99.90;;;;;;4767675;30;20052;-85
2023/04/09 00:10:49;;;;;;;68.22;50.03;;;8.30;99.90;;;;;;4751928;30;20044;-85
2023/04/09 00:13:15;;;;;;;68.10;51.10;;;8.40;99.90;;;;;;4765875;30;20055;-85
2023/04/09 00:15:40;;;;;;;70.22;50.20;;;8.30;99.90;;;;;;4768756;30;20047;-85
2023/04/09 00:18:06;;;;;;;74.78;50.08;;;8.30;99.90;;;;;;4755547;30;20043;-85
2023/04/09 00:20:31;;;;;;;69.78;51.72;;;8.30;99.90;;;;;;4753638;30;20043;-85
2023/04/09 00:22:57;;;;;;;64.63;48.90;;;8.30;99.90;;;;;;4765841;30;20051;-86
2023/04/09 00:25:23;;;;;;;72.60;52.17;;;8.30;99.90;;;;;;4766706;30;20079;-85
2023/04/09 00:27:49;;;;;;;67.20;48.97;;;8.30;99.90;;;;;;4767278;30;20484;-85
2023/04/09 00:30:15;;;;;;;72.05;48.92;;;8.30;99.90;;;;;;4769623;30;20059;-86
2023/04/09 00:32:40;;;;;;;65.30;50.00;;;8.30;99.90;;;;;;4752042;30;20109;-86
2023/04/09 00:35:07;;;;;;;67.70;49.28;;;8.20;99.90;;;;;;4767877;30;20407;-85
2023/04/09 00:37:32;;;;;;;60.03;44.60;;;8.30;99.90;;;;;;4751649;30;20048;-86
2023/04/09 00:39:58;;;;;;;61.72;44.90;;;8.30;99.90;;;;;;4752940;30;20690;-85
2023/04/09 00:42:24;;;;;;;61.38;46.60;;;8.20;99.90;;;;;;4751919;30;20044;-85
2023/04/09 00:44:50;;;;;;;62.25;45.95;;;8.20;99.90;;;;;;4752088;30;20043;-85
2023/04/09 00:47:16;;;;;;;58.85;43.05;;;8.20;99.90;;;;;;4751999;30;20082;-85
2023/04/09 00:49:43;;;;;;;68.68;46.42;;;8.20;99.90;;;;;;4750066;30;20535;-85
2023/04/09 00:52:09;;;;;;;57.42;44.05;;;8.20;99.90;;;;;;4736544;30;20166;-85
2023/04/09 00:54:35;;;;;;;68.43;45.10;;;8.90;99.90;;;;;;4752510;30;20043;-85
2023/04/09 00:57:00;;;;;;;59.20;43.03;;;8.10;99.90;;;;;;4734656;30;20044;-85
2023/04/09 00:59:27;;;;;;;59.30;44.17;;;8.30;99.90;;;;;;4770842;30;20530;-84
2023/04/09 01:01:53;;;;;;;63.85;44.80;;;8.10;99.90;;;;;;4768639;30;20047;-83
2023/04/09 01:04:19;;;;;;;60.97;44.92;;;8.10;99.90;;;;;;4770550;30;20043;-83
2023/04/09 01:06:51;;;;;;;66.35;45.95;;;8.10;99.90;;;;;;4758445;30;20054;-83
2023/04/09 01:09:29;;;;;;;59.35;41.88;;;8.10;99.90;;;;;;4755251;30;20121;-83
2023/04/09 01:12:17;;;;;;;63.42;44.95;;;8.00;99.90;;;;;;4756552;30;20055;-84
2023/04/09 01:15:05;;;;;;;63.90;41.42;;;8.10;99.90;;;;;;4757247;30;20052;-84
2023/04/09 01:17:40;;;;;;;66.78;40.45;;;8.00;99.90;;;;;;4754862;30;20400;-83
2023/04/09 01:20:10;;;;;;;54.58;40.47;;;8.00;99.90;;;;;;4760864;30;20525;-83
2023/04/09 01:22:58;;;;;;;57.38;39.63;;;8.00;99.90;;;;;;4773593;30;20039;-83
2023/04/09 01:25:48;;;;;;;56.42;39.10;;;7.90;99.90;;;;;;4773764;30;20048;-83
2023/04/09 01:28:15;;;;;;;55.38;38.92;;;7.90;99.90;;;;;;4769845;30;20084;-83
2023/04/09 01:30:45;;;;;;;54.97;37.72;;;7.90;99.90;;;;;;4758017;30;20060;-84
2023/04/09 01:33:12;;;;;;;53.08;38.38;;;7.90;99.90;;;;;;4773333;30;20468;-83
2023/04/09 01:35:45;;;;;;;54.55;36.72;;;7.90;99.90;;;;;;4773628;30;20419;-83
2023/04/09 01:38:12;;;;;;;49.42;36.30;;;7.90;99.90;;;;;;4774031;30;20048;-83
2023/04/09 01:40:38;;;;;;;51.28;36.85;;;7.90;99.90;;;;;;4776323;30;20154;-83
2023/04/09 01:43:06;;;;;;;54.95;37.45;;;7.90;99.90;;;;;;4757685;30;20060;-83
2023/04/09 01:45:32;;;;;;;50.40;34.47;;;7.90;99.90;;;;;;4774378;30;20044;-84
2023/04/09 01:47:58;;;;;;;49.60;34.65;;;7.90;99.90;;;;;;4750484;30;20105;-83
2023/04/09 01:50:24;;;;;;;46.88;34.42;;;7.80;99.90;;;;;;4770757;30;20055;-83
2023/04/09 01:52:50;;;;;;;48.85;35.92;;;7.80;99.90;;;;;;4771760;30;20062;-83
2023/04/09 01:55:16;;;;;;;47.28;33.53;;;7.80;99.90;;;;;;4756765;30;20043;-83
2023/04/09 01:57:42;;;;;;;46.63;34.10;;;7.90;99.90;;;;;;4771343;30;20044;-83
2023/04/09 02:00:08;;;;;;;46.63;33.58;;;7.80;99.90;;;;;;4772144;30;20067;-83
2023/04/09 02:02:45;;;;;;;47.15;33.00;;;7.90;99.90;;;;;;4757295;30;20100;-83
2023/04/09 02:05:14;;;;;;;46.28;33.30;;;7.90;99.90;;;;;;4756489;30;20515;-84
2023/04/09 02:07:46;;;;;;;48.00;35.10;;;8.00;99.90;;;;;;4771405;30;20492;-84
2023/04/09 02:10:13;;;;;;;45.78;33.60;;;8.00;99.90;;;;;;4772945;30;20051;-83
2023/04/09 02:12:44;;;;;;;45.47;32.80;;;8.00;99.90;;;;;;4755250;30;20127;-83
2023/04/09 02:15:11;;;;;;;45.45;32.25;;;8.00;99.90;;;;;;4771259;30;20040;-84
2023/04/09 02:17:36;;;;;;;45.58;32.97;;;8.00;99.90;;;;;;4769892;30;20059;-83
2023/04/09 02:20:02;;;;;;;48.42;33.58;;;8.10;99.90;;;;;;4756178;30;20043;-83
2023/04/09 02:22:28;;;;;;;49.10;33.30;;;8.00;99.90;;;;;;4770727;30;20067;-84
2023/04/09 02:24:54;;;;;;;40.55;30.65;;;8.00;99.90;;;;;;4751884;30;20303;-83
2023/04/09 02:27:20;;;;;;;40.85;30.20;;;8.00;99.90;;;;;;4752521;30;20127;-83
2023/04/09 02:29:45;;;;;;;45.38;33.00;;;8.00;99.90;;;;;;4770727;30;20047;-84
2023/04/09 02:32:11;;;;;;;41.15;31.73;;;8.10;99.90;;;;;;4755208;30;20083;-84
2023/04/09 02:34:36;;;;;;;40.60;30.80;;;8.00;99.90;;;;;;4756065;30;20127;-83
2023/04/09 02:37:02;;;;;;;43.63;32.25;;;8.60;99.90;;;;;;4755768;30;20047;-83
2023/04/09 02:39:27;;;;;;;43.63;30.95;;;8.00;99.90;;;;;;4771757;30;21731;-83
2023/04/09 02:41:53;;;;;;;39.72;30.08;;;8.00;99.90;;;;;;4756546;30;20051;-83
2023/04/09 02:44:19;;;;;;;42.22;31.90;;;8.00;99.90;;;;;;4755523;30;20048;-83
2023/04/09 02:46:46;;;;;;;43.85;32.83;;;8.00;99.90;;;;;;4755417;30;20060;-83
2023/04/09 02:49:12;;;;;;;46.40;33.67;;;8.00;99.90;;;;;;4771561;30;20044;-83
2023/04/09 02:51:37;;;;;;;46.65;32.50;;;7.90;99.90;;;;;;4771964;30;20565;-83
2023/04/09 02:54:03;;;;;;;46.10;33.45;;;7.90;99.90;;;;;;4755776;30;20048;-83
2023/04/09 02:56:29;;;;;;;47.10;34.70;;;7.90;99.90;;;;;;4769746;30;20047;-83
2023/04/09 02:58:54;;;;;;;45.60;34.17;;;7.90;99.90;;;;;;4754155;30;20043;-83
2023/04/09 03:01:20;;;;;;;49.63;33.78;;;7.80;99.90;;;;;;4771934;30;20102;-83
2023/04/09 03:03:47;;;;;;;49.65;34.92;;;7.80;99.90;;;;;;4771899;30;20044;-83
2023/04/09 03:06:13;;;;;;;48.97;35.70;;;7.80;99.90;;;;;;4753860;30;20058;-84
2023/04/09 03:08:38;;;;;;;49.00;36.92;;;7.80;99.90;;;;;;4770566;30;20047;-83
2023/04/09 03:11:04;;;;;;;52.08;36.08;;;7.80;99.90;;;;;;4771044;30;20044;-83
2023/04/09 03:13:30;;;;;;;51.55;35.72;;;7.80;99.90;;;;;;4774966;30;20039;-84
2023/04/09 03:15:55;;;;;;;49.25;36.88;;;7.80;99.90;;;;;;4770352;30;20035;-84
2023/04/09 03:18:21;;;;;;;52.38;37.10;;;7.80;99.90;;;;;;4755312;30;20492;-83
2023/04/09 03:20:46;;;;;;;51.45;37.50;;;8.10;99.90;;;;;;4756825;30;20048;-83
2023/04/09 03:23:12;;;;;;;52.00;36.28;;;7.70;99.90;;;;;;4756157;30;20089;-83
2023/04/09 03:25:37;;;;;;;55.80;37.65;;;7.70;99.90;;;;;;4771991;30;20534;-83
2023/04/09 03:28:03;;;;;;;51.70;38.05;;;7.70;99.90;;;;;;4764190;30;20427;-84
2023/04/09 03:30:29;;;;;;;53.13;39.03;;;7.80;99.90;;;;;;4754641;30;20109;-83
2023/04/09 03:32:55;;;;;;;50.40;37.13;;;7.70;99.90;;;;;;4754519;30;20047;-83
2023/04/09 03:35:20;;;;;;;61.13;39.58;;;7.70;99.90;;;;;;4754865;30;20437;-83
2023/04/09 03:37:46;;;;;;;54.33;38.38;;;7.60;99.90;;;;;;4739915;30;20043;-83
2023/04/09 03:40:12;;;;;;;61.85;39.28;;;7.60;99.90;;;;;;4768984;30;20076;-83
2023/04/09 03:42:38;;;;;;;54.58;37.85;;;7.60;99.90;;;;;;4771256;30;20051;-83
2023/04/09 03:45:04;;;;;;;58.80;40.58;;;7.60;99.90;;;;;;4755709;30;20039;-83
2023/04/09 03:47:30;;;;;;;51.85;37.33;;;7.60;99.90;;;;;;4757211;30;20063;-82
2023/04/09 03:49:55;;;;;;;56.03;37.30;;;7.60;99.90;;;;;;4770006;30;20055;-83
2023/04/09 03:52:21;;;;;;;54.92;37.60;;;7.60;99.90;;;;;;4777349;30;20054;-83
2023/04/09 03:54:47;;;;;;;56.78;37.35;;;7.50;99.90;;;;;;4772726;30;20043;-83
2023/04/09 03:57:12;;;;;;;51.05;37.30;;;7.60;99.90;;;;;;4771099;30;20484;-84
2023/04/09 03:59:38;;;;;;;55.78;39.03;;;7.50;99.90;;;;;;4770707;30;20073;-83
2023/04/09 04:02:04;;;;;;;55.38;38.08;;;7.40;99.90;;;;;;4754298;30;20500;-83
2023/04/09 04:04:29;;;;;;;57.00;37.13;;;7.50;99.90;;;;;;4755419;30;20138;-83
2023/04/09 04:06:55;;;;;;;53.35;38.35;;;7.40;99.90;;;;;;4753014;30;20051;-83
2023/04/09 04:09:21;;;;;;;60.53;38.00;;;7.50;99.90;;;;;;4754265;30;20051;-83
2023/04/09 04:11:46;;;;;;;51.33;36.05;;;7.50;99.90;;;;;;4755381;30;20047;-83
2023/04/09 04:14:12;;;;;;;50.20;35.25;;;7.50;99.90;;;;;;4755944;30;20484;-84
2023/04/09 04:16:39;;;;;;;50.22;35.85;;;7.50;99.90;;;;;;4754864;30;20056;-83
2023/04/09 04:19:05;;;;;;;53.00;36.50;;;7.40;99.90;;;;;;4770280;30;20048;-83
2023/04/09 04:21:31;;;;;;;56.97;38.80;;;7.60;99.90;;;;;;4767014;30;20047;-84
2023/04/09 04:23:56;;;;;;;52.78;36.90;;;7.40;99.90;;;;;;4767935;30;20052;-83
2023/04/09 04:26:22;;;;;;;52.38;36.42;;;7.40;99.90;;;;;;4754756;30;20212;-84
2023/04/09 04:28:47;;;;;;;49.17;33.80;;;7.40;99.90;;;;;;4767472;30;20384;-83
2023/04/09 04:31:13;;;;;;;53.63;35.13;;;7.40;99.90;;;;;;4751600;30;20413;-83
2023/04/09 04:33:40;;;;;;;48.10;35.88;;;7.40;99.90;;;;;;4755958;30;20563;-82
2023/04/09 04:36:07;;;;;;;54.55;35.30;;;7.50;99.90;;;;;;4770749;30;20592;-83
2023/04/09 04:38:34;;;;;;;50.67;35.00;;;7.40;99.90;;;;;;4768710;30;20075;-84
2023/04/09 04:41:00;;;;;;;50.65;35.97;;;7.40;99.90;;;;;;4767759;30;20043;-83
2023/04/09 04:43:26;;;;;;;45.25;34.10;;;7.40;99.90;;;;;;4769746;30;20040;-83
2023/04/09 04:45:51;;;;;;;52.55;35.58;;;7.40;99.90;;;;;;4751104;30;20136;-83
2023/04/09 04:48:17;;;;;;;48.05;34.33;;;7.40;99.90;;;;;;4753572;30;20079;-83
2023/04/09 04:50:42;;;;;;;44.40;32.95;;;7.40;99.90;;;;;;4769513;30;20059;-83
2023/04/09 04:53:08;;;;;;;44.35;31.98;;;7.40;99.90;;;;;;4771692;30;20047;-83
2023/04/09 04:55:40;;;;;;;46.22;33.45;;;7.40;99.90;;;;;;4759320;30;20059;-83
2023/04/09 04:58:05;;;;;;;48.55;33.63;;;7.40;99.90;;;;;;4755948;30;20040;-83
2023/04/09 05:00:31;;;;;;;43.58;32.38;;;7.50;99.90;;;;;;4769284;30;20046;-83
2023/04/09 05:02:57;;;;;;;40.28;31.10;;;7.50;99.90;;;;;;4754939;30;20067;-82
2023/04/09 05:05:22;;;;;;;38.90;29.88;;;7.50;99.90;;;;;;4771516;30;20039;-83
2023/04/09 05:07:48;;;;;;;40.58;31.73;;;7.50;99.90;;;;;;4757459;30;20126;-83
2023/04/09 05:10:13;;;;;;;43.92;31.33;;;7.50;99.90;;;;;;4755354;30;20048;-83
2023/04/09 05:12:39;;;;;;;37.75;29.95;;;7.50;99.90;;;;;;4768837;30;20044;-83
2023/04/09 05:15:05;;;;;;;36.45;29.13;;;7.50;99.90;;;;;;4770351;30;20039;-83
2023/04/09 05:17:31;;;;;;;37.35;28.00;;;7.50;99.90;;;;;;4754995;30;20076;-82
2023/04/09 05:19:56;;;;;;;36.40;28.67;;;7.50;99.90;;;;;;4770077;30;20060;-83
2023/04/09 05:22:27;;;;;;;36.60;28.25;;;7.50;99.90;;;;;;4756312;30;20043;-83
2023/04/09 05:24:53;;;;;;;39.42;29.95;;;7.80;99.90;;;;;;4772730;30;20143;-83
2023/04/09 05:27:20;;;;;;;35.75;28.00;;;7.60;99.90;;;;;;4771570;30;20047;-83
2023/04/09 05:29:46;;;;;;;38.72;30.33;;;7.60;99.90;;;;;;4767879;30;20051;-83
2023/04/09 05:32:12;;;;;;;38.53;29.85;;;7.60;99.90;;;;;;4754804;30;20044;-82
2023/04/09 05:34:38;;;;;;;35.15;29.90;;;7.60;99.90;;;;;;4750369;30;20196;-82
2023/04/09 05:37:03;;;;;;;35.75;28.35;;;7.60;99.90;;;;;;4752785;30;20048;-83
2023/04/09 05:39:30;;;;;;;32.53;27.67;;;7.60;99.90;;;;;;4755088;30;20078;-83
2023/04/09 05:41:56;;;;;;;35.47;29.40;;;7.70;99.90;;;;;;4770733;30;20043;-82
2023/04/09 05:44:22;;;;;;;36.58;29.20;;;7.60;99.90;;;;;;4770776;30;20043;-83
2023/04/09 05:46:47;;;;;;;34.30;28.83;;;7.60;99.90;;;;;;4770209;30;20047;-82
2023/04/09 05:49:13;;;;;;;37.22;28.55;;;7.70;99.90;;;;;;4756170;30;20051;-82
2023/04/09 05:51:39;;;;;;;33.88;28.83;;;7.70;99.90;;;;;;4756817;30;20054;-82
2023/04/09 05:54:06;;;;;;;33.80;27.17;;;7.90;99.90;;;;;;4758176;30;20511;-83
2023/04/09 05:56:32;;;;;;;34.70;28.70;;;7.70;99.90;;;;;;4754934;30;20048;-82
2023/04/09 05:58:59;;;;;;;34.70;28.77;;;7.70;99.90;;;;;;4768357;30;20058;-83
2023/04/09 06:02:16;;;;;;;34.60;27.10;;;7.70;99.90;;;;;;4767983;30;20492;-84
2023/04/09 06:04:42;;;;;;;37.25;27.48;;;7.70;99.90;;;;;;4757264;30;20051;-82
2023/04/09 06:07:12;;;;;;;31.98;28.50;;;7.70;99.90;;;;;;4775212;30;20139;-84
2023/04/09 06:10:17;;;;;;;37.28;27.58;;;7.70;99.90;;;;;;4756608;30;20499;-83
2023/04/09 06:12:43;;;;;;;34.97;26.35;;;7.70;99.90;;;;;;4759834;30;20079;-82
2023/04/09 06:15:09;;;;;;;33.28;27.10;;;7.80;99.90;;;;;;4757403;30;20059;-82
2023/04/09 06:17:35;;;;;;;33.67;27.35;;;7.80;99.90;;;;;;4759378;30;20078;-82
2023/04/09 06:20:00;;;;;;;29.10;26.00;;;7.80;99.90;;;;;;4773855;30;20039;-81
2023/04/09 06:22:26;;;;;;;33.85;27.17;;;7.80;99.90;;;;;;4775464;30;20105;-83
2023/04/09 06:24:51;;;;;;;31.35;26.38;;;7.80;99.90;;;;;;4760229;30;20480;-82
2023/04/09 06:27:17;;;;;;;34.65;28.45;;;7.80;99.90;;;;;;4759610;30;20191;-82
2023/04/09 06:29:43;;;;;;;32.03;27.42;;;7.90;99.90;;;;;;4773789;30;20070;-81
2023/04/09 06:32:09;;;;;;;34.50;27.25;;;7.90;99.90;;;;;;4768269;30;20059;-80
2023/04/09 06:34:34;;;;;;;32.45;25.92;;;7.90;99.90;;;;;;4751005;30;20060;-80
2023/04/09 06:37:37;;;;;;;31.98;28.17;;;7.90;99.90;;;;;;4754160;30;20097;-83
2023/04/09 06:40:22;;;;;;;35.95;29.10;;;7.90;99.90;;;;;;4757365;30;20109;-80
2023/04/09 06:42:47;;;;;;;33.40;26.73;;;7.90;99.90;;;;;;4766872;30;20709;-80
2023/04/09 06:45:14;;;;;;;29.98;25.35;;;7.90;99.90;;;;;;4752311;30;20039;-83
2023/04/09 06:47:40;;;;;;;35.33;27.55;;;7.90;99.90;;;;;;4735768;30;20052;-82
2023/04/09 06:50:10;;;;;;;31.55;26.48;;;7.90;99.90;;;;;;4769229;30;20209;-82
2023/04/09 06:52:36;;;;;;;31.10;27.15;;;8.00;99.90;;;;;;4766777;30;20044;-82
2023/04/09 06:55:01;;;;;;;30.90;27.10;;;8.00;99.90;;;;;;4756742;30;20077;-82
2023/04/09 06:57:27;;;;;;;30.75;26.42;;;8.00;99.90;;;;;;4756209;30;20463;-82
2023/04/09 06:59:53;;;;;;;30.60;26.08;;;8.00;99.90;;;;;;4769581;30;20048;-82
2023/04/09 07:02:25;;;;;;;34.13;26.52;;;8.00;99.90;;;;;;4756766;30;20047;-83
2023/04/09 07:08:56;;;;;;;31.63;26.80;;;8.10;99.90;;;;;;4749806;30;20051;-82
2023/04/09 07:11:45;;;;;;;35.45;27.55;;;8.10;99.90;;;;;;4757764;30;20054;-84
2023/04/09 07:14:20;;;;;;;33.15;28.15;;;7.90;99.90;;;;;;4770895;30;20059;-83
2023/04/09 07:16:46;;;;;;;34.97;28.05;;;8.10;99.90;;;;;;4770799;30;20051;-81
2023/04/09 07:19:12;;;;;;;37.05;26.48;;;8.10;99.90;;;;;;4755321;30;20044;-83
2023/04/09 07:22:06;;;;;;;34.75;27.83;;;8.10;99.90;;;;;;4754742;30;20075;-84
2023/04/09 07:25:10;;;;;;;31.92;26.77;;;7.80;99.90;;;;;;4773749;30;20050;-83
2023/04/09 07:29:11;;;;;;;36.25;27.55;;;8.10;99.90;;;;;;4769472;30;20522;-82
2023/04/09 07:32:27;;;;;;;33.95;26.27;;;8.20;99.90;;;;;;4769638;30;20053;-83
2023/04/09 07:35:14;;;;;;;34.97;27.90;;;8.10;99.90;;;;;;4762173;30;20067;-84
2023/04/09 07:38:06;;;;;;;33.85;28.10;;;8.40;99.90;;;;;;4754421;30;20652;-87
2023/04/09 07:41:09;;;;;;;36.55;29.02;;;8.40;99.90;;;;;;4736563;30;20486;-84
2023/04/09 07:47:16;;;;;;;34.30;27.55;;;8.50;99.90;;;;;;4768217;30;20056;-82
2023/04/09 07:49:42;;;;;;;37.47;28.60;;;8.50;99.90;;;;;;4769259;30;20150;-82
2023/04/09 07:52:07;;;;;;;35.45;28.00;;;8.60;99.90;;;;;;4762841;30;20058;-82
2023/04/09 07:54:34;;;;;;;37.10;28.10;;;8.70;99.90;;;;;;4754002;30;20560;-83
2023/04/09 07:57:03;;;;;;;36.13;30.25;;;8.70;99.90;;;;;;4765973;30;20063;-83
2023/04/09 07:59:30;;;;;;;39.00;31.50;;;8.70;99.90;;;;;;4750155;30;20047;-84
2023/04/09 08:01:56;;;;;;;35.20;29.48;;;8.80;99.90;;;;;;4754533;30;20051;-83
2023/04/09 08:04:22;;;;;;;36.47;30.67;;;8.90;99.90;;;;;;4753989;30;21635;-83
2023/04/09 08:06:52;;;;;;;36.30;29.40;;;8.90;99.90;;;;;;4768659;30;20230;-82
2023/04/09 08:09:20;;;;;;;39.65;30.98;;;8.80;99.90;;;;;;4751819;30;20487;-83
2023/04/09 08:11:56;;;;;;;41.65;31.92;;;8.90;99.90;;;;;;4767791;30;20039;-85
2023/04/09 08:14:21;;;;;;;37.38;30.27;;;9.00;99.90;;;;;;4752367;30;20134;-84
2023/04/09 08:16:48;;;;;;;37.60;30.17;;;9.10;99.90;;;;;;4765739;30;20079;-83
2023/04/09 08:19:23;;;;;;;33.55;28.02;;;9.20;99.90;;;;;;4755940;30;20040;-85
2023/04/09 08:21:49;;;;;;;35.90;29.20;;;9.30;99.90;;;;;;4752436;30;20101;-84
2023/04/09 08:24:15;;;;;;;33.95;28.38;;;9.10;99.90;;;;;;4751231;30;20044;-84
2023/04/09 08:26:41;;;;;;;36.95;30.30;;;9.20;99.90;;;;;;4759136;30;20496;-83
2023/04/09 08:29:11;;;;;;;34.10;28.17;;;9.20;99.90;;;;;;4752460;30;20056;-84
2023/04/09 08:31:37;;;;;;;34.88;28.42;;;9.20;99.90;;;;;;4756358;30;20067;-82
2023/04/09 08:34:02;;;;;;;33.55;28.98;;;9.30;99.90;;;;;;4756695;30;20050;-83
2023/04/09 08:36:28;;;;;;;33.42;29.65;;;9.40;99.90;;;;;;4772071;30;20101;-83
2023/04/09 08:38:55;;;;;;;35.33;28.05;;;9.40;99.90;;;;;;4755842;30;20047;-82
2023/04/09 08:41:23;;;;;;;34.80;29.27;;;9.50;99.90;;;;;;4757150;30;20039;-82
2023/04/09 08:43:50;;;;;;;35.42;28.65;;;9.50;99.90;;;;;;4758171;30;20561;-81
2023/04/09 08:46:16;;;;;;;33.65;29.92;;;9.50;99.90;;;;;;4771007;30;20089;-82
2023/04/09 08:48:46;;;;;;;31.90;27.60;;;9.60;99.90;;;;;;4771998;30;20059;-82
2023/04/09 08:51:13;;;;;;;35.58;29.70;;;9.60;99.90;;;;;;4757581;30;20472;-82
2023/04/09 08:53:51;;;;;;;35.58;28.92;;;9.50;99.90;;;;;;4758110;30;20060;-82
2023/04/09 08:56:17;;;;;;;30.58;25.67;;;9.60;99.90;;;;;;4771739;30;20047;-82
2023/04/09 08:58:43;;;;;;;32.13;26.83;;;9.70;99.90;;;;;;4757940;30;20058;-83
2023/04/09 09:01:24;;;;;;;31.88;27.38;;;9.70;99.90;;;;;;4756474;30;20046;-82
2023/04/09 09:03:56;;;;;;;34.50;28.60;;;9.90;99.90;;;;;;4753583;30;20054;-82
2023/04/09 09:06:43;;;;;;;32.42;28.92;;;10.00;99.90;;;;;;4771899;30;20132;-83
2023/04/09 09:09:11;;;;;;;29.45;25.27;;;10.00;99.90;;;;;;4770627;30;20432;-82
2023/04/09 09:11:38;;;;;;;31.67;27.23;;;10.10;99.90;;;;;;4762509;30;20083;-82
2023/04/09 09:14:05;;;;;;;34.08;29.05;;;10.30;99.90;;;;;;4756692;30;20508;-82
2023/04/09 09:16:33;;;;;;;33.97;27.90;;;10.30;99.90;;;;;;4755329;30;21083;-82
2023/04/09 09:19:02;;;;;;;32.20;28.75;;;10.50;99.90;;;;;;4772041;30;20047;-82
2023/04/09 09:21:29;;;;;;;31.42;26.92;;;10.50;99.90;;;;;;4757761;30;20075;-83
2023/04/09 09:23:55;;;;;;;31.98;26.52;;;10.60;99.90;;;;;;4757413;30;20100;-82
2023/04/09 09:26:27;;;;;;;32.47;25.63;;;10.80;99.90;;;;;;4758735;30;20079;-82
2023/04/09 09:28:53;;;;;;;32.90;26.20;;;10.90;99.90;;;;;;4772986;30;20052;-82
2023/04/09 09:31:20;;;;;;;30.17;26.63;;;11.00;99.90;;;;;;4758361;30;20081;-83
2023/04/09 09:33:52;;;;;;;29.67;26.52;;;11.10;99.90;;;;;;4744022;30;20056;-81
2023/04/09 09:36:37;;;;;;;27.70;24.60;;;11.10;99.90;;;;;;4761349;30;20040;-82
2023/04/09 09:39:08;;;;;;;28.20;25.15;;;11.30;99.90;;;;;;4776678;30;20500;-82
2023/04/09 09:41:34;;;;;;;29.98;25.90;;;11.30;99.90;;;;;;4775068;30;20837;-83
2023/04/09 09:44:00;;;;;;;30.90;26.20;;;11.40;99.90;;;;;;4760130;30;20044;-82
2023/04/09 09:46:26;;;;;;;33.10;26.38;;;11.40;99.90;;;;;;4775012;30;20073;-82
2023/04/09 09:48:52;;;;;;;25.60;22.73;;;11.50;99.90;;;;;;4777014;30;20040;-83
2023/04/09 09:51:20;;;;;;;31.10;26.60;;;11.80;99.90;;;;;;4760330;30;20108;-82
2023/04/09 09:53:50;;;;;;;26.60;23.70;;;12.00;99.90;;;;;;4763412;30;20047;-82
2023/04/09 09:56:20;;;;;;;32.10;25.80;;;11.90;99.90;;;;;;4759827;30;20507;-83
2023/04/09 09:59:00;;;;;;;29.50;25.02;;;11.90;99.90;;;;;;4755228;30;20055;-84
2023/04/09 10:01:26;;;;;;;29.42;24.88;;;12.00;99.90;;;;;;4770986;30;20044;-81
2023/04/09 10:03:55;;;;;;;30.52;24.55;;;12.40;99.90;;;;;;4774404;30;20476;-81
2023/04/09 10:06:21;;;;;;;25.15;22.45;;;12.70;99.90;;;;;;4758210;30;20044;-82
2023/04/09 10:08:51;;;;;;;31.08;23.52;;;12.90;99.90;;;;;;4759908;30;20077;-81
2023/04/09 10:11:18;;;;;;;26.25;23.45;;;13.10;99.90;;;;;;4757322;30;20186;-81
2023/04/09 10:13:59;;;;;;;27.40;24.50;;;13.10;99.90;;;;;;4769585;30;20056;-81
2023/04/09 10:16:26;;;;;;;27.35;23.92;;;13.20;99.90;;;;;;4774663;30;20047;-82
2023/04/09 10:18:56;;;;;;;25.60;22.90;;;13.30;99.90;;;;;;4757043;30;20078;-81
2023/04/09 10:21:52;;;;;;;26.25;23.55;;;13.20;99.90;;;;;;4761170;30;20032;-81
2023/04/09 10:24:18;;;;;;;29.27;22.83;;;13.80;99.90;;;;;;4736270;30;20046;-82
2023/04/09 10:26:43;;;;;;;27.35;24.52;;;12.80;99.90;;;;;;4755683;30;20317;-82
2023/04/09 10:29:56;;;;;;;31.83;24.15;;;12.80;99.90;;;;;;4770680;30;20077;-84
2023/04/09 10:32:25;;;;;;;27.08;24.13;;;12.60;99.90;;;;;;4755621;30;20051;-83
2023/04/09 10:35:08;;;;;;;25.40;22.67;;;12.90;99.90;;;;;;4769836;30;20048;-84
2023/04/09 10:37:34;;;;;;;27.95;21.50;;;13.20;99.90;;;;;;4770519;30;20047;-83
2023/04/09 10:40:03;;;;;;;26.40;22.17;;;13.40;99.90;;;;;;4772520;30;20508;-82
2023/04/09 10:42:34;;;;;;;24.63;21.92;;;13.60;99.90;;;;;;4768808;30;20051;-82
2023/04/09 10:45:19;;;;;;;27.75;22.10;;;13.80;99.90;;;;;;4756035;30;20054;-82
2023/04/09 10:47:50;;;;;;;24.75;21.98;;;13.80;99.90;;;;;;4757427;30;20048;-83
2023/04/09 10:50:32;;;;;;;25.13;21.95;;;14.00;99.90;;;;;;4756073;30;20052;-85
2023/04/09 10:53:21;;;;;;;24.67;22.15;;;14.10;99.90;;;;;;4769028;30;20498;-82
2023/04/09 10:56:17;;;;;;;23.35;21.05;;;14.20;99.90;;;;;;4749409;30;20066;-84
2023/04/09 10:59:45;;;;;;;23.08;20.77;;;14.20;99.90;;;;;;4769508;30;20100;-84
2023/04/09 11:02:26;;;;;;;25.65;22.85;;;13.50;99.90;;;;;;4770847;30;20503;-83
2023/04/09 11:05:16;;;;;;;22.95;20.60;;;13.60;99.90;;;;;;4767896;30;20546;-83
2023/04/09 11:08:03;;;;;;;23.08;20.67;;;13.60;99.90;;;;;;4750076;30;20051;-83
2023/04/09 11:10:29;;;;;;;23.00;20.45;;;13.30;99.90;;;;;;4754279;30;20458;-84
2023/04/09 11:12:55;;;;;;;23.15;18.95;;;13.40;99.90;;;;;;4742323;30;20052;-82
2023/04/09 11:15:21;;;;;;;21.73;19.48;;;13.60;99.90;;;;;;4754063;30;20120;-82
2023/04/09 11:17:47;;;;;;;21.45;19.35;;;13.80;99.90;;;;;;4757501;30;20073;-83
2023/04/09 11:20:19;;;;;;;23.42;20.88;;;13.80;99.90;;;;;;4755073;30;20059;-84
2023/04/09 11:22:45;;;;;;;24.20;21.60;;;13.90;99.90;;;;;;4769929;30;20522;-84
2023/04/09 11:25:27;;;;;;;23.55;21.02;;;13.70;99.90;;;;;;4768372;30;20039;-83
2023/04/09 11:27:53;;;;;;;23.48;21.08;;;13.60;99.90;;;;;;4768226;30;20157;-81
2023/04/09 11:30:19;;;;;;;23.67;21.27;;;13.60;99.90;;;;;;4751929;30;20085;-84
2023/04/09 11:32:45;;;;;;;22.75;19.80;;;13.60;99.90;;;;;;4752462;30;20474;-81
2023/04/09 11:35:14;;;;;;;22.42;20.08;;;13.40;99.90;;;;;;4755656;30;20567;-81
2023/04/09 11:37:42;;;;;;;22.27;19.98;;;13.50;99.90;;;;;;4758378;30;20055;-81
2023/04/09 11:40:22;;;;;;;21.70;19.50;;;13.40;99.90;;;;;;4771036;30;20051;-82
2023/04/09 11:42:50;;;;;;;21.63;19.42;;;13.20;99.90;;;;;;4756374;30;20108;-79
2023/04/09 11:45:16;;;;;;;23.65;19.65;;;13.00;99.90;;;;;;4770010;30;20063;-81
2023/04/09 11:47:44;;;;;;;21.15;19.05;;;13.10;99.90;;;;;;4770758;30;20059;-81
2023/04/09 11:50:11;;;;;;;20.38;18.33;;;13.50;99.90;;;;;;4755170;30;20063;-81
2023/04/09 11:52:37;;;;;;;20.25;18.25;;;13.70;99.90;;;;;;4756524;30;20051;-81
2023/04/09 11:55:04;;;;;;;20.02;18.02;;;14.00;99.90;;;;;;4755458;30;20061;-81
2023/04/09 11:57:46;;;;;;;21.67;19.42;;;14.30;99.90;;;;;;4755888;30;21068;-81
2023/04/09 12:00:16;;;;;;;20.48;18.33;;;14.20;99.90;;;;;;4755286;30;20043;-80
2023/04/09 12:02:47;;;;;;;21.40;19.10;;;13.90;99.90;;;;;;4767324;30;20428;-82
2023/04/09 12:05:24;;;;;;;19.13;17.20;;;13.70;99.90;;;;;;4754080;30;20048;-82
2023/04/09 12:07:56;;;;;;;20.42;18.33;;;13.70;99.90;;;;;;4768277;30;20044;-82
2023/04/09 12:10:28;;;;;;;18.58;16.73;;;13.80;99.90;;;;;;4748140;30;20040;-82
2023/04/09 12:12:59;;;;;;;18.33;16.42;;;13.60;99.90;;;;;;4761310;30;20073;-82
2023/04/09 12:15:25;;;;;;;18.08;16.27;;;13.90;99.90;;;;;;4777754;30;20532;-82
2023/04/09 12:17:54;;;;;;;18.63;16.83;;;14.30;99.90;;;;;;4756068;30;20055;-83
2023/04/09 12:20:35;;;;;;;18.73;16.83;;;14.70;99.90;;;;;;4766899;30;20415;-82
2023/04/09 12:23:02;;;;;;;17.65;15.82;;;14.70;99.90;;;;;;4755914;30;20047;-81
2023/04/09 12:25:29;;;;;;;18.58;16.58;;;14.60;99.90;;;;;;4757051;30;20123;-82
2023/04/09 12:27:55;;;;;;;18.38;16.45;;;14.50;99.90;;;;;;4768116;30;20051;-82
2023/04/09 12:30:22;;;;;;;18.35;16.40;;;14.30;99.90;;;;;;4757220;30;20416;-81
2023/04/09 12:32:49;;;;;;;17.75;16.05;;;14.40;99.90;;;;;;4758807;30;20086;-83
2023/04/09 12:35:14;;;;;;;18.90;16.98;;;14.50;99.90;;;;;;4759253;30;20059;-81
2023/04/09 12:37:41;;;;;;;24.23;18.55;;;14.80;99.90;;;;;;4777758;30;20067;-82
2023/04/09 12:40:13;;;;;;;19.83;16.58;;;14.50;99.90;;;;;;4783337;30;20048;-83
2023/04/09 12:42:40;;;;;;;17.80;15.98;;;14.40;99.90;;;;;;4750089;30;20043;-82
2023/04/09 12:45:08;;;;;;;19.98;17.85;;;14.70;99.90;;;;;;4779298;30;20044;-81
2023/04/09 12:47:34;;;;;;;18.70;16.80;;;14.80;99.90;;;;;;4765616;30;20079;-83
2023/04/09 12:50:10;;;;;;;18.70;16.80;;;14.90;99.90;;;;;;4761326;30;20056;-81
2023/04/09 12:52:36;;;;;;;20.20;18.20;;;15.00;99.90;;;;;;4780985;30;20420;-84
2023/04/09 12:55:04;;;;;;;19.55;17.55;;;15.20;99.90;;;;;;4769014;30;20364;-84